Time;durP1;ratioP1;P1;durP2;ratioP2;P2;SDS_P1;SDS_P2;PMS_P1;PMS_P2;Temp;Humidity;BMP_temperature;BMP_pressure;BME280_temperature;BME280_humidity;BME280_pressure;Samples;Min_cycle;Max_cycle;Signal;HPM_P1;HPM_P2
2023/09/21 00:00:15;;;;;;;3.25;1.83;;;;;;;;;;5062540;28;20041;-69
2023/09/21 00:02:44;;;;;;;8.88;2.17;;;;;;;;;;5062273;28;20044;-69
2023/09/21 00:05:11;;;;;;;3.63;2.17;;;;;;;;;;5062064;28;20067;-69
2023/09/21 00:07:37;;;;;;;5.43;2.35;;;;;;;;;;5043908;28;20044;-69
2023/09/21 00:10:06;;;;;;;2.92;1.83;;;;;;;;;;5069196;28;20582;-69
2023/09/21 00:12:32;;;;;;;4.28;1.88;;;;;;;;;;5062034;28;20080;-69
2023/09/21 00:14:59;;;;;;;5.10;2.00;;;;;;;;;;5060352;28;20048;-69
2023/09/21 00:17:26;;;;;;;2.40;1.50;;;;;;;;;;5061782;28;20049;-69
2023/09/21 00:19:53;;;;;;;5.20;2.33;;;;;;;;;;5061841;28;20040;-69
2023/09/21 00:22:19;;;;;;;3.78;2.25;;;;;;;;;;5062574;28;20040;-69
2023/09/21 00:24:45;;;;;;;5.55;2.80;;;;;;;;;;5061994;28;20419;-69
2023/09/21 00:27:12;;;;;;;6.82;2.30;;;;;;;;;;5061505;28;20080;-68
2023/09/21 00:29:38;;;;;;;3.00;1.85;;;;;;;;;;5062660;28;20059;-69
2023/09/21 00:32:04;;;;;;;3.13;1.63;;;;;;;;;;5061543;28;20060;-69
2023/09/21 00:34:31;;;;;;;5.03;2.90;;;;;;;;;;5061678;28;20727;-69
2023/09/21 00:36:57;;;;;;;3.08;2.00;;;;;;;;;;5062838;28;20045;-69
2023/09/21 00:39:23;;;;;;;3.65;2.38;;;;;;;;;;5063799;28;20035;-69
2023/09/21 00:41:49;;;;;;;4.28;2.38;;;;;;;;;;5064417;28;20519;-68
2023/09/21 00:44:15;;;;;;;2.78;1.98;;;;;;;;;;5065790;28;20048;-69
2023/09/21 00:46:43;;;;;;;5.80;2.40;;;;;;;;;;5064294;28;20052;-69
2023/09/21 00:49:10;;;;;;;1.95;1.67;;;;;;;;;;5064986;28;20531;-69
2023/09/21 00:51:38;;;;;;;6.13;2.42;;;;;;;;;;5067295;28;20066;-69
2023/09/21 00:54:12;;;;;;;3.53;2.45;;;;;;;;;;5065328;28;20887;-69
2023/09/21 00:56:39;;;;;;;2.95;2.05;;;;;;;;;;5064877;28;20105;-69
2023/09/21 00:59:06;;;;;;;6.72;2.25;;;;;;;;;;5065522;28;20087;-69
2023/09/21 01:01:37;;;;;;;3.00;1.80;;;;;;;;;;5064603;28;20063;-69
2023/09/21 01:04:06;;;;;;;3.70;2.05;;;;;;;;;;5063442;28;20128;-69
2023/09/21 01:06:32;;;;;;;3.22;1.80;;;;;;;;;;5065205;28;20068;-69
2023/09/21 01:08:59;;;;;;;4.78;2.17;;;;;;;;;;5064738;28;20115;-69
2023/09/21 01:11:26;;;;;;;4.75;2.05;;;;;;;;;;5063131;28;20052;-69
2023/09/21 01:13:52;;;;;;;5.38;2.35;;;;;;;;;;5065066;28;20045;-69
2023/09/21 01:16:18;;;;;;;3.05;2.15;;;;;;;;;;5064259;28;20055;-69
2023/09/21 01:18:46;;;;;;;3.72;1.80;;;;;;;;;;5065045;28;20029;-69
2023/09/21 01:21:15;;;;;;;3.83;2.50;;;;;;;;;;5063317;28;20506;-68
2023/09/21 01:23:49;;;;;;;4.10;1.83;;;;;;;;;;5063651;28;20542;-69
2023/09/21 01:26:16;;;;;;;3.67;1.90;;;;;;;;;;5064432;28;20512;-69
2023/09/21 01:28:45;;;;;;;3.53;2.03;;;;;;;;;;5051241;28;20306;-68
2023/09/21 01:31:13;;;;;;;3.05;1.70;;;;;;;;;;5051616;28;20098;-68
2023/09/21 01:33:42;;;;;;;4.22;2.72;;;;;;;;;;5063196;28;20098;-68
2023/09/21 01:36:09;;;;;;;3.38;2.00;;;;;;;;;;5064186;28;20128;-68
2023/09/21 01:38:35;;;;;;;3.60;2.42;;;;;;;;;;5062550;28;20052;-69
2023/09/21 01:41:03;;;;;;;2.50;1.70;;;;;;;;;;5065180;28;20320;-69
2023/09/21 01:43:29;;;;;;;3.75;2.25;;;;;;;;;;5063223;28;20076;-69
2023/09/21 01:45:55;;;;;;;2.05;1.60;;;;;;;;;;5064012;28;20044;-69
2023/09/21 01:48:21;;;;;;;3.85;2.33;;;;;;;;;;5063038;28;20068;-69
2023/09/21 01:50:48;;;;;;;3.80;1.88;;;;;;;;;;5063615;28;20090;-69
2023/09/21 01:53:19;;;;;;;3.88;2.38;;;;;;;;;;5062693;28;20063;-69
2023/09/21 01:55:47;;;;;;;5.03;1.75;;;;;;;;;;5064212;28;21363;-69
2023/09/21 01:58:14;;;;;;;5.60;2.00;;;;;;;;;;5060688;28;20087;-69
2023/09/21 02:00:42;;;;;;;4.38;2.22;;;;;;;;;;5063299;28;20036;-68
2023/09/21 02:03:12;;;;;;;4.00;1.98;;;;;;;;;;5063719;28;20055;-69
2023/09/21 02:05:39;;;;;;;4.43;2.08;;;;;;;;;;5062645;28;20087;-68
2023/09/21 02:08:07;;;;;;;4.72;2.17;;;;;;;;;;5064769;28;20041;-69
2023/09/21 02:10:33;;;;;;;6.13;2.25;;;;;;;;;;5063761;28;20044;-68
2023/09/21 02:13:00;;;;;;;3.60;2.10;;;;;;;;;;5062705;28;20086;-68
2023/09/21 02:15:27;;;;;;;2.97;2.28;;;;;;;;;;5063193;28;20083;-69
2023/09/21 02:17:56;;;;;;;4.35;2.20;;;;;;;;;;5063868;28;20440;-69
2023/09/21 02:20:23;;;;;;;3.70;2.40;;;;;;;;;;5064602;28;20041;-68
2023/09/21 02:22:51;;;;;;;4.30;1.88;;;;;;;;;;5063381;28;20082;-69
2023/09/21 02:25:18;;;;;;;6.30;2.00;;;;;;;;;;5063260;28;20059;-69
2023/09/21 02:27:46;;;;;;;3.33;2.22;;;;;;;;;;5062444;28;20059;-70
2023/09/21 02:30:16;;;;;;;3.80;2.17;;;;;;;;;;5062807;28;20048;-68
2023/09/21 02:32:42;;;;;;;4.70;1.80;;;;;;;;;;5063292;28;20127;-69
2023/09/21 02:35:16;;;;;;;5.47;2.10;;;;;;;;;;5062063;28;20052;-68
2023/09/21 02:37:46;;;;;;;2.92;2.40;;;;;;;;;;5064010;28;20047;-69
2023/09/21 02:40:16;;;;;;;3.30;2.03;;;;;;;;;;5062185;28;20062;-69
2023/09/21 02:42:46;;;;;;;4.40;2.10;;;;;;;;;;5062367;28;20052;-69
2023/09/21 02:45:13;;;;;;;3.38;1.98;;;;;;;;;;5063016;28;20052;-68
2023/09/21 02:47:42;;;;;;;4.30;2.28;;;;;;;;;;5063649;28;20049;-68
2023/09/21 02:50:14;;;;;;;4.03;1.85;;;;;;;;;;5063545;28;20041;-68
2023/09/21 02:52:47;;;;;;;3.10;2.00;;;;;;;;;;5063037;28;20055;-69
2023/09/21 02:55:16;;;;;;;3.70;2.30;;;;;;;;;;5062915;28;20048;-68
2023/09/21 02:57:44;;;;;;;4.95;2.30;;;;;;;;;;5060025;28;20511;-69
2023/09/21 03:00:21;;;;;;;3.60;2.22;;;;;;;;;;5062162;28;20045;-69
2023/09/21 03:02:48;;;;;;;3.67;2.03;;;;;;;;;;5063293;28;20051;-69
2023/09/21 03:05:16;;;;;;;3.00;1.90;;;;;;;;;;5058607;28;20054;-68
2023/09/21 03:07:43;;;;;;;2.53;1.60;;;;;;;;;;5062269;28;20040;-69
2023/09/21 03:10:10;;;;;;;3.35;1.83;;;;;;;;;;5062760;28;20036;-68
2023/09/21 03:12:37;;;;;;;3.08;2.00;;;;;;;;;;5060420;28;20385;-68
2023/09/21 03:15:07;;;;;;;4.55;2.28;;;;;;;;;;5062140;28;20090;-69
2023/09/21 03:17:34;;;;;;;3.38;1.77;;;;;;;;;;5063015;28;20043;-69
2023/09/21 03:20:12;;;;;;;3.80;1.83;;;;;;;;;;5063392;28;20097;-69
2023/09/21 03:22:38;;;;;;;3.13;1.38;;;;;;;;;;5062370;28;20043;-69
2023/09/21 03:25:11;;;;;;;3.08;1.85;;;;;;;;;;5063080;28;20059;-69
2023/09/21 03:27:37;;;;;;;;;;;;;;;;;;5058109;28;20057;-67
2023/09/21 03:30:05;;;;;;;3.35;1.90;;;;;;;;;;5059684;28;19924;-68
2023/09/21 03:32:31;;;;;;;6.20;2.35;;;;;;;;;;5061049;28;20048;-68
2023/09/21 03:34:58;;;;;;;2.88;1.88;;;;;;;;;;5061666;28;20060;-68
2023/09/21 03:37:24;;;;;;;4.53;2.45;;;;;;;;;;5062404;28;20162;-68
2023/09/21 03:39:50;;;;;;;4.90;2.20;;;;;;;;;;5060092;28;20102;-68
2023/09/21 03:42:17;;;;;;;3.42;1.80;;;;;;;;;;5060646;28;20426;-69
2023/09/21 03:44:43;;;;;;;2.78;1.50;;;;;;;;;;5059132;28;20540;-70
2023/09/21 03:47:11;;;;;;;5.03;2.00;;;;;;;;;;5060903;28;20040;-68
2023/09/21 03:49:37;;;;;;;3.55;1.83;;;;;;;;;;5062464;28;20049;-69
2023/09/21 03:52:04;;;;;;;2.88;1.67;;;;;;;;;;5062407;28;20074;-69
2023/09/21 03:54:30;;;;;;;4.50;2.17;;;;;;;;;;5059695;28;21139;-69
2023/09/21 03:56:56;;;;;;;3.08;1.83;;;;;;;;;;5062107;28;20063;-69
2023/09/21 03:59:22;;;;;;;3.15;1.75;;;;;;;;;;5060044;28;20126;-69
2023/09/21 04:01:48;;;;;;;1.98;1.58;;;;;;;;;;5059714;28;20455;-69
2023/09/21 04:04:17;;;;;;;8.15;2.33;;;;;;;;;;5060769;28;20032;-70
2023/09/21 04:06:44;;;;;;;2.60;1.70;;;;;;;;;;5058395;28;21002;-68
2023/09/21 04:09:10;;;;;;;3.33;1.67;;;;;;;;;;5055387;28;20044;-68
2023/09/21 04:11:36;;;;;;;3.70;1.90;;;;;;;;;;5057000;28;20414;-68
2023/09/21 04:14:03;;;;;;;4.10;2.10;;;;;;;;;;5060279;28;20140;-68
2023/09/21 04:16:29;;;;;;;3.33;1.95;;;;;;;;;;5066540;28;20048;-69
2023/09/21 04:18:57;;;;;;;3.97;2.15;;;;;;;;;;5063013;28;20040;-69
2023/09/21 04:21:23;;;;;;;3.47;1.75;;;;;;;;;;5065350;28;20049;-69
2023/09/21 04:23:50;;;;;;;2.55;1.70;;;;;;;;;;5063190;28;20040;-68
2023/09/21 04:26:16;;;;;;;5.63;1.83;;;;;;;;;;5064194;28;20045;-68
2023/09/21 04:28:43;;;;;;;4.25;2.03;;;;;;;;;;5062778;28;20750;-69
2023/09/21 04:31:09;;;;;;;3.45;1.83;;;;;;;;;;5062981;28;20450;-68
2023/09/21 04:33:35;;;;;;;3.70;1.45;;;;;;;;;;5064345;28;20051;-68
2023/09/21 04:36:02;;;;;;;3.10;2.05;;;;;;;;;;5063070;28;20044;-68
2023/09/21 04:38:28;;;;;;;2.92;1.70;;;;;;;;;;5048001;28;20182;-69
2023/09/21 04:40:54;;;;;;;3.85;1.70;;;;;;;;;;5067557;28;20044;-69
2023/09/21 04:43:20;;;;;;;2.92;1.77;;;;;;;;;;5029483;28;20044;-68
2023/09/21 04:45:50;;;;;;;3.63;2.22;;;;;;;;;;5064691;28;20068;-68
2023/09/21 04:48:16;;;;;;;2.13;1.42;;;;;;;;;;5065751;28;20479;-69
2023/09/21 04:50:42;;;;;;;3.67;2.13;;;;;;;;;;5065468;28;20043;-69
2023/09/21 04:53:08;;;;;;;3.83;2.22;;;;;;;;;;5062009;28;20118;-68
2023/09/21 04:55:36;;;;;;;4.30;2.03;;;;;;;;;;5064360;28;20048;-68
2023/09/21 04:58:03;;;;;;;2.83;2.00;;;;;;;;;;5066559;28;20040;-73
2023/09/21 05:00:29;;;;;;;4.22;1.92;;;;;;;;;;5063833;28;20543;-69
2023/09/21 05:02:55;;;;;;;3.92;1.80;;;;;;;;;;5066619;28;20067;-68
2023/09/21 05:05:26;;;;;;;4.65;2.15;;;;;;;;;;5067311;28;20117;-69
2023/09/21 05:07:53;;;;;;;3.58;1.50;;;;;;;;;;5062684;28;20044;-70
2023/09/21 05:10:19;;;;;;;3.20;1.60;;;;;;;;;;5065411;28;20033;-70
2023/09/21 05:12:48;;;;;;;3.95;1.75;;;;;;;;;;5028360;28;20088;-69
2023/09/21 05:15:15;;;;;;;3.45;2.13;;;;;;;;;;5064030;28;20139;-69
2023/09/21 05:17:42;;;;;;;5.15;2.20;;;;;;;;;;5065535;28;20040;-69
2023/09/21 05:20:11;;;;;;;4.00;1.50;;;;;;;;;;5065864;28;20079;-69
2023/09/21 05:22:39;;;;;;;3.25;2.33;;;;;;;;;;5064412;28;20550;-68
2023/09/21 05:25:06;;;;;;;3.50;1.70;;;;;;;;;;5063272;28;20071;-69
2023/09/21 05:27:32;;;;;;;3.38;2.20;;;;;;;;;;5055742;28;20050;-69
2023/09/21 05:30:01;;;;;;;4.85;2.20;;;;;;;;;;5059780;28;20079;-69
2023/09/21 05:32:32;;;;;;;4.32;2.20;;;;;;;;;;5061279;28;20060;-69
2023/09/21 05:34:59;;;;;;;4.35;2.28;;;;;;;;;;5064053;28;20084;-69
2023/09/21 05:37:26;;;;;;;3.28;1.90;;;;;;;;;;5067443;28;20443;-70
2023/09/21 05:39:52;;;;;;;3.10;1.90;;;;;;;;;;5065289;28;20056;-69
2023/09/21 05:42:18;;;;;;;4.03;2.20;;;;;;;;;;5064915;28;20047;-68
2023/09/21 05:44:45;;;;;;;2.78;2.08;;;;;;;;;;5062487;28;20068;-68
2023/09/21 05:47:11;;;;;;;3.13;1.83;;;;;;;;;;5062089;28;20076;-68
2023/09/21 05:49:39;;;;;;;4.68;2.28;;;;;;;;;;5062651;28;20047;-67
2023/09/21 05:52:11;;;;;;;3.72;1.77;;;;;;;;;;5065294;28;20053;-68
2023/09/21 05:54:38;;;;;;;2.75;1.90;;;;;;;;;;5063241;28;20049;-68
2023/09/21 05:57:04;;;;;;;3.58;2.00;;;;;;;;;;5064646;28;20064;-68
2023/09/21 05:59:31;;;;;;;3.65;1.95;;;;;;;;;;5061157;28;20155;-68
2023/09/21 06:01:57;;;;;;;5.07;2.40;;;;;;;;;;5061293;28;20045;-68
2023/09/21 06:04:24;;;;;;;3.60;1.77;;;;;;;;;;5061814;28;20091;-69
2023/09/21 06:06:54;;;;;;;3.33;1.92;;;;;;;;;;5064198;28;20045;-70
2023/09/21 06:09:20;;;;;;;3.35;1.98;;;;;;;;;;5063227;28;20121;-67
2023/09/21 06:11:47;;;;;;;2.53;1.77;;;;;;;;;;5062591;28;20040;-68
2023/09/21 06:14:14;;;;;;;3.33;1.83;;;;;;;;;;5058563;28;20067;-68
2023/09/21 06:16:42;;;;;;;3.42;1.75;;;;;;;;;;5060094;28;20063;-68
2023/09/21 06:19:09;;;;;;;2.80;1.83;;;;;;;;;;5058927;28;20053;-68
2023/09/21 06:21:35;;;;;;;5.18;2.05;;;;;;;;;;5058375;28;20040;-68
2023/09/21 06:24:03;;;;;;;3.83;1.80;;;;;;;;;;5059630;28;20051;-68
2023/09/21 06:26:30;;;;;;;2.17;1.60;;;;;;;;;;5061297;28;20044;-68
2023/09/21 06:28:56;;;;;;;3.38;1.98;;;;;;;;;;5061516;28;20130;-68
2023/09/21 06:31:22;;;;;;;7.10;2.92;;;;;;;;;;5063880;28;20044;-68
2023/09/21 06:33:49;;;;;;;3.55;2.25;;;;;;;;;;5062866;28;20697;-68
2023/09/21 06:36:18;;;;;;;3.15;1.67;;;;;;;;;;5060152;28;20135;-68
2023/09/21 06:38:45;;;;;;;5.25;2.33;;;;;;;;;;5063715;28;20130;-68
2023/09/21 06:41:11;;;;;;;4.35;2.13;;;;;;;;;;5058558;28;20105;-69
2023/09/21 06:43:38;;;;;;;3.05;2.05;;;;;;;;;;5060618;28;20131;-69
2023/09/21 06:46:07;;;;;;;4.15;1.95;;;;;;;;;;5061970;28;20302;-69
2023/09/21 06:48:33;;;;;;;3.15;2.00;;;;;;;;;;5062978;28;20076;-69
2023/09/21 06:50:59;;;;;;;2.90;2.10;;;;;;;;;;5061465;28;20036;-68
2023/09/21 06:53:28;;;;;;;3.33;2.05;;;;;;;;;;5063596;28;20044;-68
2023/09/21 06:55:56;;;;;;;3.75;2.03;;;;;;;;;;5060135;28;20044;-69
2023/09/21 06:58:22;;;;;;;3.28;1.83;;;;;;;;;;5058975;28;20119;-68
2023/09/21 07:00:48;;;;;;;2.88;1.75;;;;;;;;;;5060557;28;20097;-68
2023/09/21 07:03:17;;;;;;;3.38;2.00;;;;;;;;;;5061634;28;20028;-69
2023/09/21 07:05:48;;;;;;;3.00;2.22;;;;;;;;;;5062435;28;20044;-69
2023/09/21 07:08:14;;;;;;;3.25;2.17;;;;;;;;;;5061755;28;20901;-68
2023/09/21 07:10:40;;;;;;;3.95;2.30;;;;;;;;;;5061671;28;20037;-68
2023/09/21 07:13:08;;;;;;;2.80;2.00;;;;;;;;;;5059542;28;20189;-68
2023/09/21 07:15:37;;;;;;;3.03;1.73;;;;;;;;;;5060587;28;20061;-68
2023/09/21 07:18:11;;;;;;;4.07;2.03;;;;;;;;;;5059347;28;20045;-67
2023/09/21 07:20:37;;;;;;;4.05;1.65;;;;;;;;;;5060019;28;20124;-68
2023/09/21 07:23:03;;;;;;;2.35;1.63;;;;;;;;;;5061578;28;20492;-67
2023/09/21 07:25:30;;;;;;;2.47;1.60;;;;;;;;;;5060255;28;20044;-67
2023/09/21 07:27:56;;;;;;;2.40;1.40;;;;;;;;;;5060097;28;20353;-69
2023/09/21 07:30:22;;;;;;;3.63;1.67;;;;;;;;;;5059554;28;20609;-68
2023/09/21 07:32:49;;;;;;;4.18;1.98;;;;;;;;;;5060610;28;20511;-68
2023/09/21 07:35:15;;;;;;;2.22;1.50;;;;;;;;;;5058179;28;20045;-68
2023/09/21 07:37:46;;;;;;;3.60;1.42;;;;;;;;;;5061379;28;20150;-68
2023/09/21 07:40:16;;;;;;;2.78;1.50;;;;;;;;;;5059320;28;20048;-68
2023/09/21 07:42:48;;;;;;;4.47;1.58;;;;;;;;;;5060372;28;20405;-68
2023/09/21 07:45:15;;;;;;;2.58;1.58;;;;;;;;;;5060402;28;20048;-68
2023/09/21 07:47:41;;;;;;;2.75;1.40;;;;;;;;;;5060916;28;20036;-68
2023/09/21 07:50:08;;;;;;;2.05;1.27;;;;;;;;;;5059891;28;20522;-68
2023/09/21 07:52:34;;;;;;;3.70;1.45;;;;;;;;;;5057751;28;20059;-68
2023/09/21 07:55:02;;;;;;;2.17;1.15;;;;;;;;;;5060743;28;20504;-68
2023/09/21 07:57:33;;;;;;;2.00;1.50;;;;;;;;;;5060898;28;20052;-69
2023/09/21 08:00:00;;;;;;;2.15;1.73;;;;;;;;;;5058329;28;20041;-68
2023/09/21 08:02:27;;;;;;;2.47;1.98;;;;;;;;;;5058288;28;20044;-68
2023/09/21 08:04:55;;;;;;;4.20;1.80;;;;;;;;;;5057977;28;20449;-68
2023/09/21 08:07:26;;;;;;;4.40;1.35;;;;;;;;;;5061709;28;20044;-68
2023/09/21 08:09:54;;;;;;;2.22;1.10;;;;;;;;;;5060508;28;20123;-68
2023/09/21 08:12:21;;;;;;;3.75;1.35;;;;;;;;;;5061564;28;20068;-68
2023/09/21 08:14:47;;;;;;;3.33;1.52;;;;;;;;;;5062018;28;20078;-68
2023/09/21 08:17:13;;;;;;;2.22;1.25;;;;;;;;;;5061583;28;20056;-68
2023/09/21 08:19:40;;;;;;;2.30;1.10;;;;;;;;;;5061437;28;20040;-68
2023/09/21 08:22:07;;;;;;;2.20;1.27;;;;;;;;;;5061460;28;20123;-68
2023/09/21 08:24:36;;;;;;;2.17;0.88;;;;;;;;;;5061268;28;20045;-68
2023/09/21 08:27:03;;;;;;;2.22;1.30;;;;;;;;;;5061153;28;20236;-68
2023/09/21 08:29:30;;;;;;;2.33;1.17;;;;;;;;;;5060705;28;20334;-68
2023/09/21 08:31:56;;;;;;;1.65;1.00;;;;;;;;;;5061284;28;20546;-68
2023/09/21 08:34:22;;;;;;;1.88;0.82;;;;;;;;;;5059705;28;20037;-68
2023/09/21 08:36:49;;;;;;;1.98;0.82;;;;;;;;;;5059696;28;20460;-68
2023/09/21 08:39:15;;;;;;;1.35;0.73;;;;;;;;;;5061322;28;20040;-68
2023/09/21 08:41:44;;;;;;;2.97;0.80;;;;;;;;;;5058684;28;20412;-68
2023/09/21 08:44:11;;;;;;;4.38;1.33;;;;;;;;;;5059112;28;20044;-68
2023/09/21 08:46:38;;;;;;;1.65;0.80;;;;;;;;;;5061183;28;20044;-68
2023/09/21 08:49:07;;;;;;;2.38;1.45;;;;;;;;;;5061295;28;20127;-68
2023/09/21 08:51:33;;;;;;;4.75;1.00;;;;;;;;;;5059957;28;20076;-68
2023/09/21 08:54:00;;;;;;;2.03;1.33;;;;;;;;;;5059409;28;20640;-68
2023/09/21 08:56:27;;;;;;;1.88;0.90;;;;;;;;;;5060862;28;20113;-68
2023/09/21 08:58:57;;;;;;;2.38;1.38;;;;;;;;;;5059577;28;20036;-68
2023/09/21 09:01:24;;;;;;;3.58;1.00;;;;;;;;;;5063608;28;20476;-68
2023/09/21 09:03:51;;;;;;;1.13;0.82;;;;;;;;;;5062945;28;20127;-68
2023/09/21 09:06:17;;;;;;;1.25;0.80;;;;;;;;;;5064795;28;20596;-68
2023/09/21 09:08:46;;;;;;;2.60;1.00;;;;;;;;;;5062664;28;20048;-68
2023/09/21 09:11:30;;;;;;;2.13;0.95;;;;;;;;;;5064795;28;20044;-68
2023/09/21 09:13:57;;;;;;;1.45;1.00;;;;;;;;;;5063400;28;20754;-68
2023/09/21 09:16:30;;;;;;;1.92;1.17;;;;;;;;;;5060497;28;20508;-69
2023/09/21 09:19:02;;;;;;;1.00;0.90;;;;;;;;;;5064629;28;20045;-69
2023/09/21 09:21:30;;;;;;;2.30;0.98;;;;;;;;;;5062610;28;20094;-67
2023/09/21 09:23:56;;;;;;;1.38;0.80;;;;;;;;;;5063510;28;20415;-67
2023/09/21 09:26:22;;;;;;;1.65;0.90;;;;;;;;;;5059989;28;20697;-69
2023/09/21 09:28:48;;;;;;;1.20;0.82;;;;;;;;;;5062173;28;20174;-69
2023/09/21 09:31:17;;;;;;;3.55;1.17;;;;;;;;;;5063674;28;20079;-69
2023/09/21 09:33:46;;;;;;;1.02;0.77;;;;;;;;;;5060031;28;20045;-69
2023/09/21 09:36:13;;;;;;;2.35;1.00;;;;;;;;;;5061936;28;20380;-68
2023/09/21 09:38:42;;;;;;;2.95;1.50;;;;;;;;;;5061796;28;20466;-69
2023/09/21 09:41:12;;;;;;;2.10;1.10;;;;;;;;;;5064106;28;20113;-68
2023/09/21 09:43:39;;;;;;;3.03;1.08;;;;;;;;;;5060471;28;20572;-69
2023/09/21 09:46:08;;;;;;;1.90;0.85;;;;;;;;;;5061585;28;20044;-69
2023/09/21 09:48:36;;;;;;;3.72;1.08;;;;;;;;;;5064027;28;20132;-69
2023/09/21 09:51:06;;;;;;;1.98;1.00;;;;;;;;;;5061623;28;20036;-69
2023/09/21 09:53:34;;;;;;;2.00;0.95;;;;;;;;;;5063604;28;20045;-69
2023/09/21 09:56:08;;;;;;;1.35;0.98;;;;;;;;;;5064195;28;20503;-68
2023/09/21 09:58:44;;;;;;;2.25;1.25;;;;;;;;;;5061249;28;20047;-68
2023/09/21 10:01:12;;;;;;;1.48;0.90;;;;;;;;;;5063048;28;20987;-68
2023/09/21 10:03:39;;;;;;;5.78;1.90;;;;;;;;;;5061912;28;20648;-67
2023/09/21 10:06:09;;;;;;;1.27;0.93;;;;;;;;;;5061418;28;20042;-67
2023/09/21 10:08:39;;;;;;;2.45;0.90;;;;;;;;;;5064319;28;20124;-67
2023/09/21 10:11:09;;;;;;;2.28;0.80;;;;;;;;;;5059895;28;20089;-68
2023/09/21 10:13:36;;;;;;;4.25;1.27;;;;;;;;;;5061897;28;20051;-68
2023/09/21 10:16:04;;;;;;;2.67;0.98;;;;;;;;;;5059781;28;20048;-70
2023/09/21 10:18:33;;;;;;;1.42;0.80;;;;;;;;;;5060003;28;20040;-67
2023/09/21 10:21:03;;;;;;;1.42;1.00;;;;;;;;;;5059358;28;20135;-68
2023/09/21 10:23:33;;;;;;;1.60;1.08;;;;;;;;;;5062119;28;20132;-68
2023/09/21 10:25:59;;;;;;;1.25;0.95;;;;;;;;;;5062444;28;20288;-68
2023/09/21 10:28:28;;;;;;;1.13;0.82;;;;;;;;;;5061318;28;20050;-68
2023/09/21 10:30:55;;;;;;;0.73;0.65;;;;;;;;;;5063507;28;20052;-68
2023/09/21 10:33:25;;;;;;;1.90;1.00;;;;;;;;;;5063935;28;20051;-68
2023/09/21 10:35:52;;;;;;;1.48;0.70;;;;;;;;;;5065399;28;20535;-67
2023/09/21 10:38:18;;;;;;;1.23;0.90;;;;;;;;;;5063374;28;20435;-68
2023/09/21 10:40:45;;;;;;;2.63;0.90;;;;;;;;;;5060888;28;20037;-67
2023/09/21 10:43:31;;;;;;;2.00;1.10;;;;;;;;;;5057985;28;20127;-68
2023/09/21 10:46:00;;;;;;;0.98;0.60;;;;;;;;;;5054125;28;20144;-69
2023/09/21 10:48:27;;;;;;;1.00;0.70;;;;;;;;;;5060140;28;20189;-68
2023/09/21 10:50:53;;;;;;;1.85;0.90;;;;;;;;;;5059970;28;20078;-68
2023/09/21 10:53:20;;;;;;;1.08;0.80;;;;;;;;;;5062066;28;20040;-69
2023/09/21 10:55:48;;;;;;;1.67;0.73;;;;;;;;;;5061063;28;20060;-69
2023/09/21 10:58:14;;;;;;;1.30;0.70;;;;;;;;;;5057199;28;20141;-69
2023/09/21 11:00:43;;;;;;;1.65;0.90;;;;;;;;;;5057597;28;20351;-69
2023/09/21 11:03:13;;;;;;;2.35;0.95;;;;;;;;;;5059350;28;20036;-69
2023/09/21 11:05:39;;;;;;;1.52;0.82;;;;;;;;;;5064435;28;20150;-69
2023/09/21 11:08:06;;;;;;;1.40;0.82;;;;;;;;;;5062266;28;20044;-68
2023/09/21 11:10:33;;;;;;;1.27;0.80;;;;;;;;;;5061063;28;21004;-67
2023/09/21 11:12:59;;;;;;;1.83;0.82;;;;;;;;;;5057452;28;20044;-68
2023/09/21 11:15:26;;;;;;;1.67;0.90;;;;;;;;;;5057811;28;20057;-68
2023/09/21 11:17:52;;;;;;;3.38;1.35;;;;;;;;;;5057582;28;20066;-68
2023/09/21 11:20:19;;;;;;;1.13;0.75;;;;;;;;;;5058755;28;20069;-68
2023/09/21 11:22:46;;;;;;;2.15;0.80;;;;;;;;;;5060524;28;20058;-68
2023/09/21 11:25:14;;;;;;;1.35;0.68;;;;;;;;;;5056837;28;20564;-68
2023/09/21 11:27:43;;;;;;;1.50;0.90;;;;;;;;;;5067991;28;20237;-68
2023/09/21 11:30:13;;;;;;;2.50;0.93;;;;;;;;;;5057939;28;20576;-68
2023/09/21 11:32:46;;;;;;;1.10;0.68;;;;;;;;;;5059129;28;20575;-67
2023/09/21 11:35:12;;;;;;;1.23;0.80;;;;;;;;;;5060746;28;20431;-67
2023/09/21 11:37:38;;;;;;;0.95;0.70;;;;;;;;;;5062505;28;20127;-68
2023/09/21 11:40:11;;;;;;;1.80;0.80;;;;;;;;;;5061255;28;20047;-68
2023/09/21 11:42:41;;;;;;;0.95;0.73;;;;;;;;;;5060053;28;20044;-68
2023/09/21 11:45:13;;;;;;;1.67;0.82;;;;;;;;;;5059690;28;20043;-68
2023/09/21 11:47:54;;;;;;;1.33;0.82;;;;;;;;;;5060653;28;20629;-68
2023/09/21 11:50:27;;;;;;;0.73;0.50;;;;;;;;;;5062246;28;20048;-68
2023/09/21 11:52:57;;;;;;;1.17;0.70;;;;;;;;;;5062179;28;20129;-68
2023/09/21 11:55:24;;;;;;;3.40;1.52;;;;;;;;;;5060631;28;20041;-68
2023/09/21 11:57:51;;;;;;;1.35;0.77;;;;;;;;;;5060076;28;20048;-68
2023/09/21 12:00:27;;;;;;;2.65;1.08;;;;;;;;;;5060032;28;20488;-68
2023/09/21 12:02:57;;;;;;;2.38;0.93;;;;;;;;;;5061083;28;20040;-68
2023/09/21 12:05:25;;;;;;;1.05;0.73;;;;;;;;;;5061419;28;20047;-68
2023/09/21 12:07:52;;;;;;;0.95;0.70;;;;;;;;;;5062054;28;20155;-68
2023/09/21 12:10:19;;;;;;;1.48;0.85;;;;;;;;;;5060777;28;20036;-68
2023/09/21 12:12:46;;;;;;;1.30;0.70;;;;;;;;;;5061548;28;20044;-68
2023/09/21 12:15:12;;;;;;;1.45;0.68;;;;;;;;;;5059728;28;20057;-68
2023/09/21 12:17:39;;;;;;;3.58;0.70;;;;;;;;;;5061706;28;20033;-68
2023/09/21 12:20:17;;;;;;;1.13;0.85;;;;;;;;;;5060117;28;20051;-68
2023/09/21 12:22:44;;;;;;;1.40;0.70;;;;;;;;;;5061059;28;20037;-68
2023/09/21 12:25:10;;;;;;;3.47;0.82;;;;;;;;;;5059599;28;20052;-68
2023/09/21 12:27:37;;;;;;;1.08;0.88;;;;;;;;;;5058912;28;20041;-68
2023/09/21 12:30:04;;;;;;;1.35;0.63;;;;;;;;;;5056187;28;20449;-68
2023/09/21 12:32:31;;;;;;;1.45;0.70;;;;;;;;;;5059644;28;20043;-67
2023/09/21 12:34:57;;;;;;;1.15;0.70;;;;;;;;;;5062528;28;20056;-68
2023/09/21 12:37:24;;;;;;;0.85;0.73;;;;;;;;;;5064637;28;20119;-68
2023/09/21 12:39:51;;;;;;;1.42;0.95;;;;;;;;;;5065247;28;20166;-68
2023/09/21 12:42:17;;;;;;;1.88;0.98;;;;;;;;;;5064671;28;20529;-68
2023/09/21 12:44:43;;;;;;;4.97;1.00;;;;;;;;;;5065144;28;20044;-68
2023/09/21 12:47:09;;;;;;;1.38;1.00;;;;;;;;;;5063953;28;20049;-68
2023/09/21 12:49:39;;;;;;;1.77;0.82;;;;;;;;;;5064663;28;20045;-68
2023/09/21 12:52:05;;;;;;;1.02;0.60;;;;;;;;;;5065118;28;20064;-68
2023/09/21 12:54:31;;;;;;;2.38;0.75;;;;;;;;;;5064876;28;20101;-68
2023/09/21 12:56:57;;;;;;;0.80;0.70;;;;;;;;;;5063349;28;20231;-67
2023/09/21 12:59:23;;;;;;;1.52;0.80;;;;;;;;;;5060671;28;20063;-68
2023/09/21 13:01:52;;;;;;;1.65;0.82;;;;;;;;;;5062908;28;20058;-68
2023/09/21 13:04:18;;;;;;;1.98;0.98;;;;;;;;;;5064510;28;20048;-70
2023/09/21 13:06:45;;;;;;;1.55;1.08;;;;;;;;;;5061692;28;20044;-68
2023/09/21 13:09:11;;;;;;;3.60;0.70;;;;;;;;;;5062515;28;20048;-68
2023/09/21 13:11:37;;;;;;;1.70;0.80;;;;;;;;;;5063873;28;20044;-67
2023/09/21 13:14:04;;;;;;;1.20;0.90;;;;;;;;;;5062445;28;20044;-68
2023/09/21 13:16:30;;;;;;;1.55;0.90;;;;;;;;;;5064855;28;20052;-69
2023/09/21 13:18:56;;;;;;;1.55;0.70;;;;;;;;;;5061689;28;20504;-68
2023/09/21 13:21:22;;;;;;;1.58;0.73;;;;;;;;;;5060371;28;20036;-68
2023/09/21 13:23:48;;;;;;;2.15;1.23;;;;;;;;;;5060742;28;20032;-68
2023/09/21 13:26:14;;;;;;;1.48;0.85;;;;;;;;;;5059914;28;20041;-68
2023/09/21 13:28:41;;;;;;;1.67;1.02;;;;;;;;;;5059620;28;20496;-68
2023/09/21 13:31:09;;;;;;;2.95;1.13;;;;;;;;;;5063053;28;20044;-69
2023/09/21 13:33:36;;;;;;;2.05;0.85;;;;;;;;;;5063109;28;20547;-68
2023/09/21 13:36:03;;;;;;;1.40;0.88;;;;;;;;;;5061172;28;20032;-68
2023/09/21 13:38:29;;;;;;;2.65;1.35;;;;;;;;;;5063251;28;20067;-68
2023/09/21 13:40:57;;;;;;;1.90;1.38;;;;;;;;;;5060426;28;20049;-69
2023/09/21 13:43:25;;;;;;;0.95;0.70;;;;;;;;;;5060075;28;20127;-68
2023/09/21 13:45:51;;;;;;;1.63;0.95;;;;;;;;;;5058490;28;20060;-68
2023/09/21 13:48:19;;;;;;;4.53;1.60;;;;;;;;;;5062026;28;20048;-68
2023/09/21 13:50:46;;;;;;;2.28;1.13;;;;;;;;;;5065039;28;20119;-68
2023/09/21 13:53:12;;;;;;;3.20;1.10;;;;;;;;;;5064953;28;20048;-68
2023/09/21 13:55:38;;;;;;;2.30;1.20;;;;;;;;;;5064099;28;20582;-68
2023/09/21 13:58:04;;;;;;;3.28;1.10;;;;;;;;;;5055104;28;20068;-68
2023/09/21 14:00:33;;;;;;;2.20;1.20;;;;;;;;;;5063773;28;20438;-68
2023/09/21 14:02:59;;;;;;;1.77;1.10;;;;;;;;;;5061442;28;20052;-68
2023/09/21 14:05:26;;;;;;;2.80;1.25;;;;;;;;;;5061724;28;20044;-68
2023/09/21 14:07:52;;;;;;;2.67;1.40;;;;;;;;;;5061115;28;20047;-69
2023/09/21 14:10:18;;;;;;;2.35;1.08;;;;;;;;;;5061062;28;20137;-69
2023/09/21 14:12:44;;;;;;;1.60;0.88;;;;;;;;;;5061305;28;20059;-70
2023/09/21 14:15:10;;;;;;;1.73;1.27;;;;;;;;;;5060188;28;20488;-69
2023/09/21 14:17:39;;;;;;;2.08;1.05;;;;;;;;;;5058435;28;20045;-68
2023/09/21 14:20:06;;;;;;;2.58;1.10;;;;;;;;;;5058837;28;20098;-68
2023/09/21 14:22:32;;;;;;;2.17;1.20;;;;;;;;;;5057267;28;20486;-68
2023/09/21 14:24:59;;;;;;;1.85;1.15;;;;;;;;;;5060097;28;20050;-68
2023/09/21 14:27:25;;;;;;;2.25;1.00;;;;;;;;;;5059681;28;20048;-68
2023/09/21 14:29:51;;;;;;;1.20;1.00;;;;;;;;;;5056174;28;20048;-68
2023/09/21 14:32:17;;;;;;;2.17;1.20;;;;;;;;;;5060369;28;20052;-68
2023/09/21 14:34:44;;;;;;;1.27;0.82;;;;;;;;;;5059597;28;20123;-69
2023/09/21 14:37:10;;;;;;;2.80;1.08;;;;;;;;;;5060075;28;20404;-68
2023/09/21 14:39:36;;;;;;;1.42;0.98;;;;;;;;;;5063344;28;20063;-69
2023/09/21 14:42:02;;;;;;;1.85;1.17;;;;;;;;;;5059452;28;20052;-68
2023/09/21 14:44:28;;;;;;;2.08;1.00;;;;;;;;;;5061843;28;20052;-69